sensor_id;sensor_type;location;lat;lon;timestamp;temperature;humidity
52245;DHT22;55759;51.586;-1.758;2023-07-20T00:01:57;14.70;83.90
52245;DHT22;55759;51.586;-1.758;2023-07-20T00:04:23;14.70;83.60
52245;DHT22;55759;51.586;-1.758;2023-07-20T00:06:48;14.60;84.20
52245;DHT22;55759;51.586;-1.758;2023-07-20T00:09:14;14.50;84.20
52245;DHT22;55759;51.586;-1.758;2023-07-20T00:11:39;14.50;84.60
52245;DHT22;55759;51.586;-1.758;2023-07-20T00:14:05;14.40;83.50
52245;DHT22;55759;51.586;-1.758;2023-07-20T00:16:31;14.40;83.70
52245;DHT22;55759;51.586;-1.758;2023-07-20T00:18:57;14.30;84.00
52245;DHT22;55759;51.586;-1.758;2023-07-20T00:21:22;14.30;84.80
52245;DHT22;55759;51.586;-1.758;2023-07-20T00:23:48;14.20;85.30
52245;DHT22;55759;51.586;-1.758;2023-07-20T00:26:14;14.10;85.20
52245;DHT22;55759;51.586;-1.758;2023-07-20T00:28:39;14.10;85.50
52245;DHT22;55759;51.586;-1.758;2023-07-20T00:31:05;14.10;85.80
52245;DHT22;55759;51.586;-1.758;2023-07-20T00:33:30;14.00;86.00
52245;DHT22;55759;51.586;-1.758;2023-07-20T00:35:56;13.90;85.80
52245;DHT22;55759;51.586;-1.758;2023-07-20T00:38:22;13.90;85.70
52245;DHT22;55759;51.586;-1.758;2023-07-20T00:40:47;13.80;86.00
52245;DHT22;55759;51.586;-1.758;2023-07-20T00:43:22;13.80;86.10
52245;DHT22;55759;51.586;-1.758;2023-07-20T00:45:47;13.70;86.30
52245;DHT22;55759;51.586;-1.758;2023-07-20T00:48:13;13.60;86.60
52245;DHT22;55759;51.586;-1.758;2023-07-20T00:50:39;13.60;87.20
52245;DHT22;55759;51.586;-1.758;2023-07-20T00:53:05;13.50;87.10
52245;DHT22;55759;51.586;-1.758;2023-07-20T00:55:33;13.40;87.40
52245;DHT22;55759;51.586;-1.758;2023-07-20T00:57:59;13.40;87.70
52245;DHT22;55759;51.586;-1.758;2023-07-20T01:00:25;13.20;87.80
52245;DHT22;55759;51.586;-1.758;2023-07-20T01:02:51;13.20;88.00
52245;DHT22;55759;51.586;-1.758;2023-07-20T01:05:16;13.10;88.20
52245;DHT22;55759;51.586;-1.758;2023-07-20T01:07:45;13.10;88.10
52245;DHT22;55759;51.586;-1.758;2023-07-20T01:10:17;13.10;88.20
52245;DHT22;55759;51.586;-1.758;2023-07-20T01:12:51;13.00;88.40
52245;DHT22;55759;51.586;-1.758;2023-07-20T01:15:17;12.90;88.50
52245;DHT22;55759;51.586;-1.758;2023-07-20T01:17:42;12.90;88.70
52245;DHT22;55759;51.586;-1.758;2023-07-20T01:20:10;12.80;88.60
52245;DHT22;55759;51.586;-1.758;2023-07-20T01:27:56;12.60;88.70
52245;DHT22;55759;51.586;-1.758;2023-07-20T01:32:57;12.50;89.10
52245;DHT22;55759;51.586;-1.758;2023-07-20T01:35:23;12.40;89.20
52245;DHT22;55759;51.586;-1.758;2023-07-20T01:37:52;12.40;89.30
52245;DHT22;55759;51.586;-1.758;2023-07-20T01:40:19;12.40;89.40
52245;DHT22;55759;51.586;-1.758;2023-07-20T01:42:48;12.30;89.40
52245;DHT22;55759;51.586;-1.758;2023-07-20T01:45:13;12.30;89.40
52245;DHT22;55759;51.586;-1.758;2023-07-20T01:47:39;12.20;89.70
52245;DHT22;55759;51.586;-1.758;2023-07-20T01:50:05;12.20;89.70
52245;DHT22;55759;51.586;-1.758;2023-07-20T01:52:31;12.20;89.60
52245;DHT22;55759;51.586;-1.758;2023-07-20T01:55:01;12.10;89.70
52245;DHT22;55759;51.586;-1.758;2023-07-20T01:57:27;12.10;89.80
52245;DHT22;55759;51.586;-1.758;2023-07-20T01:59:53;12.10;89.70
52245;DHT22;55759;51.586;-1.758;2023-07-20T02:02:21;12.00;89.70
52245;DHT22;55759;51.586;-1.758;2023-07-20T02:04:46;12.10;89.70
52245;DHT22;55759;51.586;-1.758;2023-07-20T02:07:12;12.00;89.60
52245;DHT22;55759;51.586;-1.758;2023-07-20T02:09:37;11.90;89.50
52245;DHT22;55759;51.586;-1.758;2023-07-20T02:12:03;11.90;89.50
52245;DHT22;55759;51.586;-1.758;2023-07-20T02:14:28;11.80;89.70
52245;DHT22;55759;51.586;-1.758;2023-07-20T02:16:54;11.80;89.90
52245;DHT22;55759;51.586;-1.758;2023-07-20T02:19:25;11.80;89.80
52245;DHT22;55759;51.586;-1.758;2023-07-20T02:21:51;11.70;89.80
52245;DHT22;55759;51.586;-1.758;2023-07-20T02:24:17;11.70;89.80
52245;DHT22;55759;51.586;-1.758;2023-07-20T02:26:42;11.60;89.90
52245;DHT22;55759;51.586;-1.758;2023-07-20T02:29:08;11.60;90.00
52245;DHT22;55759;51.586;-1.758;2023-07-20T02:31:36;11.50;90.00
52245;DHT22;55759;51.586;-1.758;2023-07-20T02:34:03;11.50;89.90
52245;DHT22;55759;51.586;-1.758;2023-07-20T02:36:28;11.50;89.90
52245;DHT22;55759;51.586;-1.758;2023-07-20T02:38:54;11.40;90.00
52245;DHT22;55759;51.586;-1.758;2023-07-20T02:41:20;11.40;90.00
52245;DHT22;55759;51.586;-1.758;2023-07-20T02:43:45;11.40;90.10
52245;DHT22;55759;51.586;-1.758;2023-07-20T02:46:11;11.30;90.20
52245;DHT22;55759;51.586;-1.758;2023-07-20T02:48:37;11.30;90.40
52245;DHT22;55759;51.586;-1.758;2023-07-20T02:51:02;11.30;90.40
52245;DHT22;55759;51.586;-1.758;2023-07-20T02:53:28;11.30;90.40
52245;DHT22;55759;51.586;-1.758;2023-07-20T02:55:53;11.30;90.30
52245;DHT22;55759;51.586;-1.758;2023-07-20T02:58:19;11.30;90.30
52245;DHT22;55759;51.586;-1.758;2023-07-20T03:00:45;11.30;90.30
52245;DHT22;55759;51.586;-1.758;2023-07-20T03:03:10;11.30;90.30
52245;DHT22;55759;51.586;-1.758;2023-07-20T03:05:36;11.30;90.20
52245;DHT22;55759;51.586;-1.758;2023-07-20T03:08:07;11.30;90.20
52245;DHT22;55759;51.586;-1.758;2023-07-20T03:10:33;11.20;90.20
52245;DHT22;55759;51.586;-1.758;2023-07-20T03:13:03;11.20;90.20
52245;DHT22;55759;51.586;-1.758;2023-07-20T03:15:29;11.20;90.30
52245;DHT22;55759;51.586;-1.758;2023-07-20T03:17:54;11.20;90.20
52245;DHT22;55759;51.586;-1.758;2023-07-20T03:20:20;11.20;90.10
52245;DHT22;55759;51.586;-1.758;2023-07-20T03:22:46;11.20;90.10
52245;DHT22;55759;51.586;-1.758;2023-07-20T03:25:11;11.20;90.10
52245;DHT22;55759;51.586;-1.758;2023-07-20T03:27:37;11.10;90.10
52245;DHT22;55759;51.586;-1.758;2023-07-20T03:30:03;11.10;90.20
52245;DHT22;55759;51.586;-1.758;2023-07-20T03:32:28;11.10;90.20
52245;DHT22;55759;51.586;-1.758;2023-07-20T03:34:54;11.00;90.30
52245;DHT22;55759;51.586;-1.758;2023-07-20T03:37:19;11.10;90.30
52245;DHT22;55759;51.586;-1.758;2023-07-20T03:39:45;11.00;90.40
52245;DHT22;55759;51.586;-1.758;2023-07-20T03:42:11;11.00;90.40
52245;DHT22;55759;51.586;-1.758;2023-07-20T03:44:36;11.00;90.50
52245;DHT22;55759;51.586;-1.758;2023-07-20T03:47:02;11.00;90.50
52245;DHT22;55759;51.586;-1.758;2023-07-20T03:49:29;10.90;90.60
52245;DHT22;55759;51.586;-1.758;2023-07-20T03:51:55;10.90;90.60
52245;DHT22;55759;51.586;-1.758;2023-07-20T03:54:21;10.90;90.60
52245;DHT22;55759;51.586;-1.758;2023-07-20T03:56:46;10.90;90.70
52245;DHT22;55759;51.586;-1.758;2023-07-20T03:59:12;10.90;90.70
52245;DHT22;55759;51.586;-1.758;2023-07-20T04:01:37;10.90;90.80
52245;DHT22;55759;51.586;-1.758;2023-07-20T04:04:06;10.90;90.60
52245;DHT22;55759;51.586;-1.758;2023-07-20T04:06:31;10.80;90.60
52245;DHT22;55759;51.586;-1.758;2023-07-20T04:08:57;10.80;90.70
52245;DHT22;55759;51.586;-1.758;2023-07-20T04:11:23;10.70;90.70
52245;DHT22;55759;51.586;-1.758;2023-07-20T04:13:48;10.70;90.80
52245;DHT22;55759;51.586;-1.758;2023-07-20T04:16:14;10.70;90.90
52245;DHT22;55759;51.586;-1.758;2023-07-20T04:18:39;10.70;90.90
52245;DHT22;55759;51.586;-1.758;2023-07-20T04:21:07;10.70;90.90
52245;DHT22;55759;51.586;-1.758;2023-07-20T04:23:32;10.70;90.90
52245;DHT22;55759;51.586;-1.758;2023-07-20T04:25:58;10.70;90.90
52245;DHT22;55759;51.586;-1.758;2023-07-20T04:28:24;10.70;90.90
52245;DHT22;55759;51.586;-1.758;2023-07-20T04:30:49;10.60;90.90
52245;DHT22;55759;51.586;-1.758;2023-07-20T04:33:17;10.60;90.90
52245;DHT22;55759;51.586;-1.758;2023-07-20T04:35:53;10.60;91.00
52245;DHT22;55759;51.586;-1.758;2023-07-20T04:38:19;10.50;91.10
52245;DHT22;55759;51.586;-1.758;2023-07-20T04:40:45;10.50;91.10
52245;DHT22;55759;51.586;-1.758;2023-07-20T04:43:12;10.60;91.20
52245;DHT22;55759;51.586;-1.758;2023-07-20T04:45:37;10.50;91.10
52245;DHT22;55759;51.586;-1.758;2023-07-20T04:48:04;10.60;91.10
52245;DHT22;55759;51.586;-1.758;2023-07-20T04:50:30;10.60;91.10
52245;DHT22;55759;51.586;-1.758;2023-07-20T04:52:56;10.60;91.20
52245;DHT22;55759;51.586;-1.758;2023-07-20T04:55:21;10.60;91.20
52245;DHT22;55759;51.586;-1.758;2023-07-20T04:57:47;10.70;91.10
52245;DHT22;55759;51.586;-1.758;2023-07-20T05:00:12;10.70;91.10
52245;DHT22;55759;51.586;-1.758;2023-07-20T05:02:39;10.70;91.10
52245;DHT22;55759;51.586;-1.758;2023-07-20T05:05:05;10.80;91.10
52245;DHT22;55759;51.586;-1.758;2023-07-20T05:07:36;10.90;91.00
52245;DHT22;55759;51.586;-1.758;2023-07-20T05:10:02;11.00;90.80
52245;DHT22;55759;51.586;-1.758;2023-07-20T05:12:28;11.10;90.60
52245;DHT22;55759;51.586;-1.758;2023-07-20T05:14:54;11.10;90.40
52245;DHT22;55759;51.586;-1.758;2023-07-20T05:17:19;11.20;90.30
52245;DHT22;55759;51.586;-1.758;2023-07-20T05:19:45;11.20;90.20
52245;DHT22;55759;51.586;-1.758;2023-07-20T05:22:13;11.40;90.10
52245;DHT22;55759;51.586;-1.758;2023-07-20T05:24:38;11.40;90.10
52245;DHT22;55759;51.586;-1.758;2023-07-20T05:27:04;11.50;90.20
52245;DHT22;55759;51.586;-1.758;2023-07-20T05:29:29;11.60;90.20
52245;DHT22;55759;51.586;-1.758;2023-07-20T05:31:55;11.70;89.80
52245;DHT22;55759;51.586;-1.758;2023-07-20T05:34:21;11.80;89.60
52245;DHT22;55759;51.586;-1.758;2023-07-20T05:36:46;11.80;89.30
52245;DHT22;55759;51.586;-1.758;2023-07-20T05:39:12;12.00;89.20
52245;DHT22;55759;51.586;-1.758;2023-07-20T05:41:37;12.10;89.00
52245;DHT22;55759;51.586;-1.758;2023-07-20T05:44:03;12.10;88.80
52245;DHT22;55759;51.586;-1.758;2023-07-20T05:46:29;12.20;89.00
52245;DHT22;55759;51.586;-1.758;2023-07-20T05:48:54;12.30;88.50
52245;DHT22;55759;51.586;-1.758;2023-07-20T05:51:20;12.30;88.50
52245;DHT22;55759;51.586;-1.758;2023-07-20T05:53:45;12.40;88.10
52245;DHT22;55759;51.586;-1.758;2023-07-20T05:56:23;12.50;87.60
52245;DHT22;55759;51.586;-1.758;2023-07-20T06:01:54;12.60;87.60
52245;DHT22;55759;51.586;-1.758;2023-07-20T06:04:20;12.70;87.30
52245;DHT22;55759;51.586;-1.758;2023-07-20T06:06:48;12.80;87.30
52245;DHT22;55759;51.586;-1.758;2023-07-20T06:09:41;12.80;87.20
52245;DHT22;55759;51.586;-1.758;2023-07-20T06:12:27;12.90;86.80
52245;DHT22;55759;51.586;-1.758;2023-07-20T06:14:52;13.00;87.20
52245;DHT22;55759;51.586;-1.758;2023-07-20T06:17:18;13.10;86.80
52245;DHT22;55759;51.586;-1.758;2023-07-20T06:19:46;13.10;86.80
52245;DHT22;55759;51.586;-1.758;2023-07-20T06:22:22;13.30;87.00
52245;DHT22;55759;51.586;-1.758;2023-07-20T06:24:47;13.40;87.30
52245;DHT22;55759;51.586;-1.758;2023-07-20T06:27:13;13.50;86.40
52245;DHT22;55759;51.586;-1.758;2023-07-20T06:29:39;13.60;86.80
52245;DHT22;55759;51.586;-1.758;2023-07-20T06:32:05;13.70;86.40
52245;DHT22;55759;51.586;-1.758;2023-07-20T06:34:31;13.90;86.60
52245;DHT22;55759;51.586;-1.758;2023-07-20T06:36:56;14.00;83.50
52245;DHT22;55759;51.586;-1.758;2023-07-20T06:39:22;14.20;85.20
52245;DHT22;55759;51.586;-1.758;2023-07-20T06:41:50;14.30;83.40
52245;DHT22;55759;51.586;-1.758;2023-07-20T06:44:15;14.40;81.10
52245;DHT22;55759;51.586;-1.758;2023-07-20T06:46:41;14.60;81.80
52245;DHT22;55759;51.586;-1.758;2023-07-20T06:49:07;14.70;80.30
52245;DHT22;55759;51.586;-1.758;2023-07-20T06:51:35;14.80;82.10
52245;DHT22;55759;51.586;-1.758;2023-07-20T06:54:10;15.00;79.30
52245;DHT22;55759;51.586;-1.758;2023-07-20T06:56:36;15.10;81.00
52245;DHT22;55759;51.586;-1.758;2023-07-20T06:59:02;15.30;80.20
52245;DHT22;55759;51.586;-1.758;2023-07-20T07:01:28;15.40;80.60
52245;DHT22;55759;51.586;-1.758;2023-07-20T07:03:53;15.60;81.60
52245;DHT22;55759;51.586;-1.758;2023-07-20T07:09:16;15.90;79.90
52245;DHT22;55759;51.586;-1.758;2023-07-20T07:11:55;16.10;79.70
52245;DHT22;55759;51.586;-1.758;2023-07-20T07:14:21;16.20;77.60
52245;DHT22;55759;51.586;-1.758;2023-07-20T07:16:49;16.30;78.20
52245;DHT22;55759;51.586;-1.758;2023-07-20T07:19:15;16.40;77.20
52245;DHT22;55759;51.586;-1.758;2023-07-20T07:21:40;16.60;77.90
52245;DHT22;55759;51.586;-1.758;2023-07-20T07:24:06;16.80;77.70
52245;DHT22;55759;51.586;-1.758;2023-07-20T07:26:33;17.00;75.80
52245;DHT22;55759;51.586;-1.758;2023-07-20T07:28:58;17.10;75.70
52245;DHT22;55759;51.586;-1.758;2023-07-20T07:31:28;17.30;75.30
52245;DHT22;55759;51.586;-1.758;2023-07-20T07:33:54;17.50;74.00
52245;DHT22;55759;51.586;-1.758;2023-07-20T07:36:19;17.70;74.50
52245;DHT22;55759;51.586;-1.758;2023-07-20T07:38:45;17.70;71.60
52245;DHT22;55759;51.586;-1.758;2023-07-20T07:41:10;17.80;71.10
52245;DHT22;55759;51.586;-1.758;2023-07-20T07:43:36;17.90;71.40
52245;DHT22;55759;51.586;-1.758;2023-07-20T07:46:02;17.90;71.80
52245;DHT22;55759;51.586;-1.758;2023-07-20T07:48:27;18.00;70.60
52245;DHT22;55759;51.586;-1.758;2023-07-20T07:50:53;18.10;72.70
52245;DHT22;55759;51.586;-1.758;2023-07-20T07:53:19;18.20;70.30
52245;DHT22;55759;51.586;-1.758;2023-07-20T07:55:47;18.40;71.10
52245;DHT22;55759;51.586;-1.758;2023-07-20T07:58:12;18.60;69.10
52245;DHT22;55759;51.586;-1.758;2023-07-20T08:00:39;18.70;70.40
52245;DHT22;55759;51.586;-1.758;2023-07-20T08:03:06;18.70;65.80
52245;DHT22;55759;51.586;-1.758;2023-07-20T08:05:34;18.80;63.20
52245;DHT22;55759;51.586;-1.758;2023-07-20T08:08:03;19.00;62.00
52245;DHT22;55759;51.586;-1.758;2023-07-20T08:10:31;19.10;62.10
52245;DHT22;55759;51.586;-1.758;2023-07-20T08:12:57;19.20;60.00
52245;DHT22;55759;51.586;-1.758;2023-07-20T08:15:23;19.40;65.00
52245;DHT22;55759;51.586;-1.758;2023-07-20T08:17:48;19.40;59.50
52245;DHT22;55759;51.586;-1.758;2023-07-20T08:20:16;19.60;56.00
52245;DHT22;55759;51.586;-1.758;2023-07-20T08:22:42;19.70;62.80
52245;DHT22;55759;51.586;-1.758;2023-07-20T08:25:08;19.80;63.50
52245;DHT22;55759;51.586;-1.758;2023-07-20T08:27:34;19.80;59.60
52245;DHT22;55759;51.586;-1.758;2023-07-20T08:30:00;19.80;61.60
52245;DHT22;55759;51.586;-1.758;2023-07-20T08:32:26;19.70;61.80
52245;DHT22;55759;51.586;-1.758;2023-07-20T08:34:52;19.70;59.20
52245;DHT22;55759;51.586;-1.758;2023-07-20T08:37:17;19.70;61.20
52245;DHT22;55759;51.586;-1.758;2023-07-20T08:39:43;19.60;60.90
52245;DHT22;55759;51.586;-1.758;2023-07-20T08:42:09;19.60;62.70
52245;DHT22;55759;51.586;-1.758;2023-07-20T08:44:39;19.60;59.20
52245;DHT22;55759;51.586;-1.758;2023-07-20T08:47:04;19.60;60.70
52245;DHT22;55759;51.586;-1.758;2023-07-20T08:49:31;19.70;64.40
52245;DHT22;55759;51.586;-1.758;2023-07-20T08:51:57;19.70;60.90
52245;DHT22;55759;51.586;-1.758;2023-07-20T08:54:24;19.70;56.00
52245;DHT22;55759;51.586;-1.758;2023-07-20T08:56:50;19.80;57.90
52245;DHT22;55759;51.586;-1.758;2023-07-20T08:59:16;19.70;61.00
52245;DHT22;55759;51.586;-1.758;2023-07-20T09:01:42;19.60;60.50
52245;DHT22;55759;51.586;-1.758;2023-07-20T09:04:08;19.60;62.20
52245;DHT22;55759;51.586;-1.758;2023-07-20T09:06:34;19.60;64.90
52245;DHT22;55759;51.586;-1.758;2023-07-20T09:09:00;19.70;59.10
52245;DHT22;55759;51.586;-1.758;2023-07-20T09:11:26;19.80;59.80
52245;DHT22;55759;51.586;-1.758;2023-07-20T09:14:09;19.90;61.30
52245;DHT22;55759;51.586;-1.758;2023-07-20T09:16:54;20.10;62.10
52245;DHT22;55759;51.586;-1.758;2023-07-20T09:19:21;20.30;59.20
52245;DHT22;55759;51.586;-1.758;2023-07-20T09:21:47;20.40;55.60
52245;DHT22;55759;51.586;-1.758;2023-07-20T09:24:13;20.60;58.50
52245;DHT22;55759;51.586;-1.758;2023-07-20T09:26:42;20.60;58.30
52245;DHT22;55759;51.586;-1.758;2023-07-20T09:29:08;20.70;52.30
52245;DHT22;55759;51.586;-1.758;2023-07-20T09:31:35;20.70;51.70
52245;DHT22;55759;51.586;-1.758;2023-07-20T09:34:01;20.70;52.90
52245;DHT22;55759;51.586;-1.758;2023-07-20T09:36:27;20.80;57.10
52245;DHT22;55759;51.586;-1.758;2023-07-20T09:38:52;20.90;55.90
52245;DHT22;55759;51.586;-1.758;2023-07-20T09:41:18;21.00;56.80
52245;DHT22;55759;51.586;-1.758;2023-07-20T09:43:45;21.00;58.00
52245;DHT22;55759;51.586;-1.758;2023-07-20T09:46:11;21.10;56.80
52245;DHT22;55759;51.586;-1.758;2023-07-20T09:48:36;21.10;58.50
52245;DHT22;55759;51.586;-1.758;2023-07-20T09:51:02;21.30;56.20
52245;DHT22;55759;51.586;-1.758;2023-07-20T09:53:29;21.50;55.60
52245;DHT22;55759;51.586;-1.758;2023-07-20T09:55:55;21.40;52.80
52245;DHT22;55759;51.586;-1.758;2023-07-20T09:58:23;21.50;52.10
52245;DHT22;55759;51.586;-1.758;2023-07-20T10:00:51;21.70;53.40
52245;DHT22;55759;51.586;-1.758;2023-07-20T10:03:27;22.20;51.70
52245;DHT22;55759;51.586;-1.758;2023-07-20T10:06:04;22.60;51.10
52245;DHT22;55759;51.586;-1.758;2023-07-20T10:08:31;23.10;52.10
52245;DHT22;55759;51.586;-1.758;2023-07-20T10:10:58;23.40;50.10
52245;DHT22;55759;51.586;-1.758;2023-07-20T10:13:26;23.70;51.20
52245;DHT22;55759;51.586;-1.758;2023-07-20T10:16:02;24.10;52.40
52245;DHT22;55759;51.586;-1.758;2023-07-20T10:21:13;24.10;49.40
52245;DHT22;55759;51.586;-1.758;2023-07-20T10:23:39;24.30;45.70
52245;DHT22;55759;51.586;-1.758;2023-07-20T10:26:15;24.70;46.70
52245;DHT22;55759;51.586;-1.758;2023-07-20T10:28:43;24.90;43.80
52245;DHT22;55759;51.586;-1.758;2023-07-20T10:31:09;25.20;50.40
52245;DHT22;55759;51.586;-1.758;2023-07-20T10:33:36;25.60;43.30
52245;DHT22;55759;51.586;-1.758;2023-07-20T10:36:03;26.30;45.80
52245;DHT22;55759;51.586;-1.758;2023-07-20T10:38:40;26.80;44.90
52245;DHT22;55759;51.586;-1.758;2023-07-20T10:41:17;27.10;41.70
52245;DHT22;55759;51.586;-1.758;2023-07-20T10:43:45;27.10;40.70
52245;DHT22;55759;51.586;-1.758;2023-07-20T10:46:11;27.40;40.50
52245;DHT22;55759;51.586;-1.758;2023-07-20T10:48:59;28.10;43.90
52245;DHT22;55759;51.586;-1.758;2023-07-20T10:51:25;28.30;39.80
52245;DHT22;55759;51.586;-1.758;2023-07-20T10:53:50;28.40;36.20
52245;DHT22;55759;51.586;-1.758;2023-07-20T10:56:22;27.80;39.20
52245;DHT22;55759;51.586;-1.758;2023-07-20T10:58:50;27.10;38.50
52245;DHT22;55759;51.586;-1.758;2023-07-20T11:01:27;26.60;38.70
52245;DHT22;55759;51.586;-1.758;2023-07-20T11:03:56;26.40;39.70
52245;DHT22;55759;51.586;-1.758;2023-07-20T11:11:40;25.40;42.40
52245;DHT22;55759;51.586;-1.758;2023-07-20T11:14:27;25.00;43.70
52245;DHT22;55759;51.586;-1.758;2023-07-20T11:16:52;24.70;43.30
52245;DHT22;55759;51.586;-1.758;2023-07-20T11:19:19;24.40;43.80
52245;DHT22;55759;51.586;-1.758;2023-07-20T11:21:45;24.20;43.20
52245;DHT22;55759;51.586;-1.758;2023-07-20T11:24:14;24.10;44.70
52245;DHT22;55759;51.586;-1.758;2023-07-20T11:26:43;24.10;48.60
52245;DHT22;55759;51.586;-1.758;2023-07-20T11:29:09;24.10;49.80
52245;DHT22;55759;51.586;-1.758;2023-07-20T11:31:35;24.30;45.10
52245;DHT22;55759;51.586;-1.758;2023-07-20T11:34:01;24.20;42.60
52245;DHT22;55759;51.586;-1.758;2023-07-20T11:36:27;24.30;45.50
52245;DHT22;55759;51.586;-1.758;2023-07-20T11:38:55;24.60;42.00
52245;DHT22;55759;51.586;-1.758;2023-07-20T11:41:28;25.00;44.90
52245;DHT22;55759;51.586;-1.758;2023-07-20T11:43:54;25.80;47.20
52245;DHT22;55759;51.586;-1.758;2023-07-20T11:46:20;27.10;46.00
52245;DHT22;55759;51.586;-1.758;2023-07-20T11:48:45;28.10;41.80
52245;DHT22;55759;51.586;-1.758;2023-07-20T11:51:17;28.30;38.90
52245;DHT22;55759;51.586;-1.758;2023-07-20T11:53:44;29.60;38.00
52245;DHT22;55759;51.586;-1.758;2023-07-20T11:56:11;31.20;36.30
52245;DHT22;55759;51.586;-1.758;2023-07-20T11:58:41;30.60;36.00
52245;DHT22;55759;51.586;-1.758;2023-07-20T12:01:07;29.50;35.30
52245;DHT22;55759;51.586;-1.758;2023-07-20T12:03:32;28.50;35.50
52245;DHT22;55759;51.586;-1.758;2023-07-20T12:06:05;27.60;40.90
52245;DHT22;55759;51.586;-1.758;2023-07-20T12:08:34;27.80;38.80
52245;DHT22;55759;51.586;-1.758;2023-07-20T12:10:59;30.70;36.80
52245;DHT22;55759;51.586;-1.758;2023-07-20T12:13:38;34.10;34.60
52245;DHT22;55759;51.586;-1.758;2023-07-20T12:16:22;36.90;25.70
52245;DHT22;55759;51.586;-1.758;2023-07-20T12:18:50;38.10;26.80
52245;DHT22;55759;51.586;-1.758;2023-07-20T12:21:24;36.30;27.10
52245;DHT22;55759;51.586;-1.758;2023-07-20T12:23:49;36.40;30.40
52245;DHT22;55759;51.586;-1.758;2023-07-20T12:26:18;37.30;27.20
52245;DHT22;55759;51.586;-1.758;2023-07-20T12:28:45;37.80;25.80
52245;DHT22;55759;51.586;-1.758;2023-07-20T12:31:11;39.90;25.80
52245;DHT22;55759;51.586;-1.758;2023-07-20T12:33:38;41.80;25.60
52245;DHT22;55759;51.586;-1.758;2023-07-20T12:36:04;43.60;23.20
52245;DHT22;55759;51.586;-1.758;2023-07-20T12:38:30;44.90;24.00
52245;DHT22;55759;51.586;-1.758;2023-07-20T12:40:56;45.80;19.00
52245;DHT22;55759;51.586;-1.758;2023-07-20T12:43:22;46.60;18.60
52245;DHT22;55759;51.586;-1.758;2023-07-20T12:45:48;47.20;21.60
52245;DHT22;55759;51.586;-1.758;2023-07-20T12:48:13;48.00;21.50
52245;DHT22;55759;51.586;-1.758;2023-07-20T12:53:33;50.00;21.20
52245;DHT22;55759;51.586;-1.758;2023-07-20T12:55:59;51.10;21.00
52245;DHT22;55759;51.586;-1.758;2023-07-20T12:58:25;51.60;17.40
52245;DHT22;55759;51.586;-1.758;2023-07-20T13:00:51;50.40;18.30
52245;DHT22;55759;51.586;-1.758;2023-07-20T13:03:16;47.40;17.50
52245;DHT22;55759;51.586;-1.758;2023-07-20T13:05:44;43.60;21.80
52245;DHT22;55759;51.586;-1.758;2023-07-20T13:08:09;40.20;29.20
52245;DHT22;55759;51.586;-1.758;2023-07-20T13:10:35;37.60;35.70
52245;DHT22;55759;51.586;-1.758;2023-07-20T13:13:00;35.50;34.00
52245;DHT22;55759;51.586;-1.758;2023-07-20T13:15:30;33.60;37.50
52245;DHT22;55759;51.586;-1.758;2023-07-20T13:17:58;31.90;40.40
52245;DHT22;55759;51.586;-1.758;2023-07-20T13:20:25;30.60;41.00
52245;DHT22;55759;51.586;-1.758;2023-07-20T13:22:51;29.70;49.80
52245;DHT22;55759;51.586;-1.758;2023-07-20T13:25:16;29.00;53.90
52245;DHT22;55759;51.586;-1.758;2023-07-20T13:27:42;28.30;42.40
52245;DHT22;55759;51.586;-1.758;2023-07-20T13:30:08;27.60;41.50
52245;DHT22;55759;51.586;-1.758;2023-07-20T13:32:35;26.90;48.10
52245;DHT22;55759;51.586;-1.758;2023-07-20T13:35:01;26.30;43.50
52245;DHT22;55759;51.586;-1.758;2023-07-20T13:37:27;25.80;42.80
52245;DHT22;55759;51.586;-1.758;2023-07-20T13:39:53;25.20;42.60
52245;DHT22;55759;51.586;-1.758;2023-07-20T13:42:19;24.70;48.30
52245;DHT22;55759;51.586;-1.758;2023-07-20T13:44:49;24.40;46.30
52245;DHT22;55759;51.586;-1.758;2023-07-20T13:47:15;24.10;44.60
52245;DHT22;55759;51.586;-1.758;2023-07-20T13:49:40;23.80;44.70
52245;DHT22;55759;51.586;-1.758;2023-07-20T13:52:06;23.60;46.80
52245;DHT22;55759;51.586;-1.758;2023-07-20T13:54:32;23.40;45.60
52245;DHT22;55759;51.586;-1.758;2023-07-20T13:56:57;23.20;45.80
52245;DHT22;55759;51.586;-1.758;2023-07-20T13:59:23;23.10;47.50
52245;DHT22;55759;51.586;-1.758;2023-07-20T14:01:48;22.90;47.40
52245;DHT22;55759;51.586;-1.758;2023-07-20T14:04:14;22.80;47.30
52245;DHT22;55759;51.586;-1.758;2023-07-20T14:06:40;22.70;48.30
52245;DHT22;55759;51.586;-1.758;2023-07-20T14:09:06;22.60;47.80
52245;DHT22;55759;51.586;-1.758;2023-07-20T14:11:31;22.40;48.40
52245;DHT22;55759;51.586;-1.758;2023-07-20T14:13:57;22.30;49.40
52245;DHT22;55759;51.586;-1.758;2023-07-20T14:16:23;22.20;49.60
52245;DHT22;55759;51.586;-1.758;2023-07-20T14:18:49;22.20;50.70
52245;DHT22;55759;51.586;-1.758;2023-07-20T14:21:15;22.20;54.20
52245;DHT22;55759;51.586;-1.758;2023-07-20T14:23:41;22.20;50.00
52245;DHT22;55759;51.586;-1.758;2023-07-20T14:26:07;22.10;51.20
52245;DHT22;55759;51.586;-1.758;2023-07-20T14:28:35;22.10;53.40
52245;DHT22;55759;51.586;-1.758;2023-07-20T14:31:01;22.30;50.30
52245;DHT22;55759;51.586;-1.758;2023-07-20T14:33:26;22.40;48.10
52245;DHT22;55759;51.586;-1.758;2023-07-20T14:35:52;22.60;50.60
52245;DHT22;55759;51.586;-1.758;2023-07-20T14:38:17;22.90;47.40
52245;DHT22;55759;51.586;-1.758;2023-07-20T14:40:43;23.10;51.20
52245;DHT22;55759;51.586;-1.758;2023-07-20T14:43:10;23.50;47.70
52245;DHT22;55759;51.586;-1.758;2023-07-20T14:45:35;23.90;46.80
52245;DHT22;55759;51.586;-1.758;2023-07-20T14:48:03;24.20;44.30
52245;DHT22;55759;51.586;-1.758;2023-07-20T14:50:29;24.60;47.60
52245;DHT22;55759;51.586;-1.758;2023-07-20T14:52:54;25.10;49.20
52245;DHT22;55759;51.586;-1.758;2023-07-20T14:55:20;25.60;47.70
52245;DHT22;55759;51.586;-1.758;2023-07-20T14:57:46;26.30;46.40
52245;DHT22;55759;51.586;-1.758;2023-07-20T15:00:13;27.20;40.00
52245;DHT22;55759;51.586;-1.758;2023-07-20T15:02:40;28.50;39.50
52245;DHT22;55759;51.586;-1.758;2023-07-20T15:05:09;29.40;38.60
52245;DHT22;55759;51.586;-1.758;2023-07-20T15:07:35;30.50;34.10
52245;DHT22;55759;51.586;-1.758;2023-07-20T15:10:01;31.70;37.10
52245;DHT22;55759;51.586;-1.758;2023-07-20T15:12:27;32.90;37.20
52245;DHT22;55759;51.586;-1.758;2023-07-20T15:15:09;34.10;35.00
52245;DHT22;55759;51.586;-1.758;2023-07-20T15:17:35;34.50;36.20
52245;DHT22;55759;51.586;-1.758;2023-07-20T15:20:01;34.10;28.40
52245;DHT22;55759;51.586;-1.758;2023-07-20T15:22:30;33.90;35.10
52245;DHT22;55759;51.586;-1.758;2023-07-20T15:24:56;36.20;33.70
52245;DHT22;55759;51.586;-1.758;2023-07-20T15:27:21;37.80;30.40
52245;DHT22;55759;51.586;-1.758;2023-07-20T15:29:48;38.30;29.20
52245;DHT22;55759;51.586;-1.758;2023-07-20T15:32:14;37.70;28.80
52245;DHT22;55759;51.586;-1.758;2023-07-20T15:34:42;36.10;32.90
52245;DHT22;55759;51.586;-1.758;2023-07-20T15:37:07;34.20;36.30
52245;DHT22;55759;51.586;-1.758;2023-07-20T15:39:33;32.50;39.60